RYR33U LPLA-LPPR
Flight info
| Callsign | RYR33U |
|---|---|
| Flight time | N/A |
| Altitude | 27000 |
| Route | REGLA H121 BAVAS/M074F370 DCT 40N020W/M074F390 DCT DETOX/N0461F390 DCT ASMOV |
| Aircraft | B738/M-SDE2E3FGHIRWXY/LB1 |
Departure
| Time | 2026-04-29 08:51 |
|---|---|
| Airport | Lajes Airport (LPLA) |
Arrival
| Time | N/A |
|---|---|
| Airport | Francisco de Sá Carneiro Airport (LPPR) |
| Time | Latitude | Longitude | Altitude | Speed | Heading |
|---|---|---|---|---|---|
| 2026-04-29 08:35 | 38.75572 | -27.08748 | 169 ft | 0 kts | 93° |
| 2026-04-29 08:48 | 38.75572 | -27.08746 | 184 ft | 1 kts | 93° |
| 2026-04-29 08:49 | 38.75570 | -27.08709 | 184 ft | 10 kts | 93° |
| 2026-04-29 08:49 | 38.75509 | -27.08615 | 195 ft | 19 kts | 146° |
| 2026-04-29 08:49 | 38.75478 | -27.08496 | 183 ft | 8 kts | 52° |
| 2026-04-29 08:49 | 38.75524 | -27.08422 | 198 ft | 9 kts | 41° |
| 2026-04-29 08:50 | 38.75573 | -27.08442 | 184 ft | 16 kts | 319° |
| 2026-04-29 08:50 | 38.75929 | -27.08821 | 194 ft | 116 kts | 322° |
| 2026-04-29 08:50 | 38.76758 | -27.09734 | 218 ft | 197 kts | 320° |
| 2026-04-29 08:50 | 38.77948 | -27.10903 | 779 ft | 233 kts | 322° |
| 2026-04-29 08:51 | 38.79314 | -27.12110 | 2003 ft | 236 kts | 324° |
| 2026-04-29 08:51 | 38.80643 | -27.13229 | 3432 ft | 226 kts | 326° |
| 2026-04-29 08:51 | 38.82185 | -27.13822 | 4199 ft | 242 kts | 1° |
| 2026-04-29 08:51 | 38.83771 | -27.13057 | 4799 ft | 254 kts | 41° |
| 2026-04-29 08:52 | 38.84777 | -27.11207 | 5555 ft | 255 kts | 71° |
| 2026-04-29 08:52 | 38.85146 | -27.08959 | 6230 ft | 266 kts | 86° |
| 2026-04-29 08:52 | 38.85310 | -27.06532 | 6914 ft | 277 kts | 89° |
| 2026-04-29 08:52 | 38.85434 | -27.04065 | 7815 ft | 281 kts | 90° |
| 2026-04-29 08:53 | 38.85555 | -27.01549 | 8792 ft | 283 kts | 91° |
| 2026-04-29 08:53 | 38.85680 | -26.99006 | 9734 ft | 287 kts | 91° |
| 2026-04-29 08:53 | 38.85809 | -26.96436 | 10472 ft | 297 kts | 91° |
| 2026-04-29 08:53 | 38.85947 | -26.93663 | 10707 ft | 324 kts | 91° |
| 2026-04-29 08:54 | 38.86098 | -26.90687 | 10913 ft | 350 kts | 91° |
| 2026-04-29 08:54 | 38.86269 | -26.87483 | 11361 ft | 365 kts | 91° |
| 2026-04-29 08:54 | 38.86452 | -26.84192 | 12118 ft | 370 kts | 91° |
| 2026-04-29 08:54 | 38.86639 | -26.80908 | 12970 ft | 372 kts | 91° |
| 2026-04-29 08:55 | 38.86827 | -26.77601 | 13781 ft | 376 kts | 91° |
| 2026-04-29 08:55 | 38.87017 | -26.74235 | 14528 ft | 378 kts | 92° |
| 2026-04-29 08:55 | 38.87206 | -26.70863 | 15313 ft | 379 kts | 92° |
| 2026-04-29 08:55 | 38.87394 | -26.67483 | 16091 ft | 380 kts | 93° |
| 2026-04-29 08:56 | 38.87580 | -26.64102 | 16842 ft | 383 kts | 94° |
| 2026-04-29 08:56 | 38.87766 | -26.60686 | 17583 ft | 385 kts | 94° |
| 2026-04-29 08:56 | 38.87952 | -26.57254 | 18273 ft | 387 kts | 94° |
| 2026-04-29 08:56 | 38.88139 | -26.53770 | 18821 ft | 392 kts | 94° |
| 2026-04-29 08:57 | 38.88323 | -26.50294 | 19300 ft | 397 kts | 94° |
| 2026-04-29 08:57 | 38.88513 | -26.46697 | 19805 ft | 402 kts | 94° |
| 2026-04-29 08:57 | 38.88702 | -26.43103 | 20327 ft | 406 kts | 94° |
| 2026-04-29 08:57 | 38.88892 | -26.39502 | 20810 ft | 411 kts | 94° |
| 2026-04-29 08:58 | 38.89085 | -26.35806 | 21291 ft | 415 kts | 94° |
| 2026-04-29 08:58 | 38.89279 | -26.32075 | 21771 ft | 420 kts | 94° |
| 2026-04-29 08:58 | 38.89472 | -26.28352 | 22221 ft | 424 kts | 94° |
| 2026-04-29 08:58 | 38.89669 | -26.24533 | 22689 ft | 428 kts | 94° |
| 2026-04-29 08:59 | 38.89864 | -26.20722 | 23136 ft | 432 kts | 94° |
| 2026-04-29 08:59 | 38.90062 | -26.16828 | 23544 ft | 436 kts | 94° |
| 2026-04-29 08:59 | 38.90258 | -26.12954 | 23945 ft | 439 kts | 93° |
| 2026-04-29 08:59 | 38.90456 | -26.09013 | 24375 ft | 440 kts | 93° |
| 2026-04-29 09:00 | 38.90651 | -26.05124 | 24786 ft | 442 kts | 93° |
| 2026-04-29 09:00 | 38.90848 | -26.01155 | 25186 ft | 445 kts | 93° |
| 2026-04-29 09:00 | 38.91044 | -25.97168 | 25558 ft | 447 kts | 93° |
| 2026-04-29 09:00 | 38.91236 | -25.93213 | 25916 ft | 450 kts | 93° |
| 2026-04-29 09:01 | 38.91432 | -25.89174 | 26277 ft | 452 kts | 93° |
| 2026-04-29 09:01 | 38.91627 | -25.85103 | 26628 ft | 455 kts | 93° |
| 2026-04-29 09:01 | 38.91819 | -25.81077 | 26974 ft | 457 kts | 93° |
| 2026-04-29 09:01 | 38.92014 | -25.76968 | 27313 ft | 459 kts | 93° |
| 2026-04-29 09:02 | 38.92204 | -25.72919 | 27639 ft | 461 kts | 92° |
| 2026-04-29 09:02 | 38.92396 | -25.68791 | 27964 ft | 464 kts | 92° |
| 2026-04-29 09:02 | 38.92590 | -25.64616 | 28269 ft | 466 kts | 92° |
| 2026-04-29 09:02 | 38.92780 | -25.60479 | 28559 ft | 468 kts | 92° |
| 2026-04-29 09:03 | 38.92971 | -25.56273 | 28865 ft | 471 kts | 92° |
| 2026-04-29 09:03 | 38.93160 | -25.52104 | 29223 ft | 471 kts | 92° |
| 2026-04-29 09:03 | 38.93350 | -25.47889 | 29705 ft | 469 kts | 92° |
| 2026-04-29 09:03 | 38.93536 | -25.43753 | 30147 ft | 466 kts | 92° |
| 2026-04-29 09:04 | 38.93721 | -25.39586 | 30493 ft | 466 kts | 92° |
| 2026-04-29 09:04 | 38.93904 | -25.35398 | 30786 ft | 467 kts | 92° |
| 2026-04-29 09:04 | 38.94083 | -25.31266 | 31083 ft | 467 kts | 92° |
| 2026-04-29 09:04 | 38.94262 | -25.27092 | 31426 ft | 467 kts | 92° |
| 2026-04-29 09:05 | 38.94440 | -25.22924 | 31783 ft | 466 kts | 92° |
| 2026-04-29 09:05 | 38.94617 | -25.18748 | 32113 ft | 466 kts | 92° |
| 2026-04-29 09:05 | 38.94789 | -25.14636 | 32446 ft | 465 kts | 92° |
| 2026-04-29 09:05 | 38.94962 | -25.10480 | 32767 ft | 465 kts | 92° |
| 2026-04-29 09:06 | 38.95134 | -25.06320 | 33080 ft | 464 kts | 92° |
| 2026-04-29 09:06 | 38.95304 | -25.02168 | 33380 ft | 464 kts | 92° |
| 2026-04-29 09:06 | 38.95469 | -24.98078 | 33753 ft | 462 kts | 92° |
| 2026-04-29 09:06 | 38.95636 | -24.93987 | 34265 ft | 457 kts | 92° |
| 2026-04-29 09:07 | 38.95799 | -24.89885 | 34402 ft | 463 kts | 92° |
| 2026-04-29 09:07 | 38.95960 | -24.85721 | 34587 ft | 466 kts | 92° |
| 2026-04-29 09:07 | 38.96122 | -24.81562 | 34931 ft | 465 kts | 92° |
| 2026-04-29 09:07 | 38.96284 | -24.77403 | 35284 ft | 465 kts | 92° |
| 2026-04-29 09:08 | 38.96444 | -24.73249 | 35575 ft | 465 kts | 91° |
| 2026-04-29 09:08 | 38.96601 | -24.69133 | 35759 ft | 467 kts | 91° |
| 2026-04-29 09:08 | 38.96757 | -24.64931 | 35881 ft | 474 kts | 92° |
| 2026-04-29 09:08 | 38.96915 | -24.60680 | 36266 ft | 472 kts | 91° |
| 2026-04-29 09:09 | 38.97070 | -24.56539 | 36673 ft | 467 kts | 91° |
| 2026-04-29 09:09 | 38.97226 | -24.52338 | 36953 ft | 465 kts | 91° |
| 2026-04-29 09:09 | 38.97377 | -24.48197 | 37001 ft | 468 kts | 91° |
| 2026-04-29 09:10 | 38.97674 | -24.39834 | 37008 ft | 468 kts | 91° |
| 2026-04-29 09:10 | 38.97966 | -24.31531 | 37011 ft | 465 kts | 91° |
| 2026-04-29 09:11 | 38.98250 | -24.23249 | 37017 ft | 463 kts | 91° |
| 2026-04-29 09:11 | 38.98528 | -24.14962 | 37037 ft | 461 kts | 91° |
| 2026-04-29 09:12 | 38.98798 | -24.06724 | 37027 ft | 462 kts | 91° |
| 2026-04-29 09:12 | 38.99063 | -23.98482 | 37036 ft | 462 kts | 91° |
| 2026-04-29 09:13 | 38.99321 | -23.90271 | 37041 ft | 463 kts | 91° |
| 2026-04-29 09:13 | 38.99577 | -23.81957 | 37044 ft | 465 kts | 91° |
| 2026-04-29 09:14 | 38.99828 | -23.73644 | 37046 ft | 467 kts | 91° |
| 2026-04-29 09:14 | 39.00641 | -23.65336 | 37043 ft | 476 kts | 77° |
| 2026-04-29 09:15 | 39.02916 | -23.57253 | 37048 ft | 480 kts | 72° |
| 2026-04-29 09:15 | 39.05335 | -23.49237 | 37052 ft | 481 kts | 71° |
| 2026-04-29 09:16 | 39.07711 | -23.41213 | 37059 ft | 482 kts | 72° |
| 2026-04-29 09:16 | 39.10062 | -23.33105 | 37063 ft | 481 kts | 72° |
| 2026-04-29 09:17 | 39.12388 | -23.25004 | 37063 ft | 481 kts | 72° |
| 2026-04-29 09:17 | 39.14701 | -23.16924 | 37073 ft | 481 kts | 72° |
| 2026-04-29 09:18 | 39.17002 | -23.08868 | 37077 ft | 480 kts | 72° |
| 2026-04-29 09:18 | 39.19297 | -23.00808 | 37077 ft | 480 kts | 72° |
| 2026-04-29 09:19 | 39.21601 | -22.92696 | 37082 ft | 480 kts | 72° |
| 2026-04-29 09:19 | 39.23891 | -22.84607 | 37086 ft | 479 kts | 72° |
| 2026-04-29 09:20 | 39.26164 | -22.76554 | 37088 ft | 479 kts | 72° |
| 2026-04-29 09:20 | 39.28431 | -22.68496 | 37091 ft | 479 kts | 72° |
| 2026-04-29 09:21 | 39.30698 | -22.60414 | 37092 ft | 478 kts | 72° |
| 2026-04-29 09:21 | 39.32955 | -22.52342 | 37096 ft | 478 kts | 72° |
| 2026-04-29 09:22 | 39.35217 | -22.44226 | 37101 ft | 478 kts | 72° |
| 2026-04-29 09:22 | 39.37460 | -22.36154 | 37099 ft | 478 kts | 72° |
| 2026-04-29 09:23 | 39.39708 | -22.28036 | 37106 ft | 478 kts | 72° |
| 2026-04-29 09:23 | 39.41942 | -22.19947 | 37103 ft | 479 kts | 72° |
| 2026-04-29 09:24 | 39.44168 | -22.11860 | 37109 ft | 479 kts | 72° |
| 2026-04-29 09:24 | 39.46405 | -22.03707 | 37114 ft | 479 kts | 72° |
| 2026-04-29 09:25 | 39.48622 | -21.95599 | 37112 ft | 479 kts | 72° |
| 2026-04-29 09:25 | 39.50843 | -21.87454 | 37119 ft | 479 kts | 72° |
| 2026-04-29 09:26 | 39.53049 | -21.79336 | 37120 ft | 479 kts | 72° |
| 2026-04-29 09:26 | 39.55248 | -21.71219 | 37116 ft | 479 kts | 72° |
| 2026-04-29 09:27 | 39.57456 | -21.63041 | 37124 ft | 479 kts | 71° |
| 2026-04-29 09:27 | 39.59658 | -21.54860 | 37123 ft | 479 kts | 71° |
| 2026-04-29 09:28 | 39.61470 | -21.48108 | 37128 ft | 479 kts | 71° |
| 2026-04-29 09:28 | 39.63661 | -21.39921 | 37119 ft | 479 kts | 71° |
| 2026-04-29 09:29 | 39.66199 | -21.30399 | 37118 ft | 479 kts | 71° |
| 2026-04-29 09:29 | 39.69094 | -21.19497 | 37121 ft | 479 kts | 71° |
| 2026-04-29 09:30 | 39.71246 | -21.11363 | 37132 ft | 478 kts | 71° |
| 2026-04-29 09:30 | 39.73758 | -21.01832 | 37134 ft | 477 kts | 71° |
| 2026-04-29 09:31 | 39.75542 | -20.95044 | 37133 ft | 477 kts | 71° |
| 2026-04-29 09:31 | 39.77693 | -20.86830 | 37131 ft | 477 kts | 71° |
| 2026-04-29 09:32 | 39.79810 | -20.78722 | 37132 ft | 476 kts | 71° |
| 2026-04-29 09:32 | 39.81934 | -20.70557 | 37132 ft | 476 kts | 71° |
| 2026-04-29 09:33 | 39.84052 | -20.62392 | 37133 ft | 476 kts | 71° |
| 2026-04-29 09:33 | 39.86171 | -20.54195 | 37135 ft | 476 kts | 71° |
| 2026-04-29 09:34 | 39.88268 | -20.46054 | 37137 ft | 476 kts | 71° |
| 2026-04-29 09:34 | 39.90371 | -20.37862 | 37135 ft | 476 kts | 71° |
| 2026-04-29 09:35 | 39.92452 | -20.29731 | 37132 ft | 476 kts | 71° |
| 2026-04-29 09:35 | 39.94541 | -20.21539 | 37132 ft | 476 kts | 71° |
| 2026-04-29 09:36 | 39.96624 | -20.13345 | 37130 ft | 477 kts | 71° |
| 2026-04-29 09:36 | 39.98710 | -20.05110 | 37131 ft | 477 kts | 71° |